Time;durP1;ratioP1;P1;durP2;ratioP2;P2;SDS_P1;SDS_P2;PMS_P1;PMS_P2;Temp;Humidity;BMP_temperature;BMP_pressure;BME280_temperature;BME280_humidity;BME280_pressure;Samples;Min_cycle;Max_cycle;Signal;HPM_P1;HPM_P2
2021/12/23 00:10:23;;;;;;;0.40;0.40;;;0.70;90.90;-0.80;101548.00;;;;31016769;28;20053;-72
2021/12/23 00:25:25;;;;;;;0.30;0.30;;;0.80;91.30;-0.80;101514.00;;;;30996781;28;20137;-72
2021/12/23 00:40:26;;;;;;;0.30;0.30;;;0.70;90.60;-0.80;101503.00;;;;31019572;28;20050;-72
2021/12/23 00:55:28;;;;;;;0.40;0.40;;;1.60;91.50;-0.80;101493.00;;;;31020742;28;20046;-72
2021/12/23 01:10:30;;;;;;;0.32;0.32;;;0.80;91.50;-0.70;101463.00;;;;31001074;28;20134;-72
2021/12/23 01:25:32;;;;;;;0.30;0.30;;;1.60;91.50;-0.70;101465.00;;;;31001530;28;20126;-72
2021/12/23 01:40:34;;;;;;;0.30;0.30;;;0.80;90.80;-0.70;101472.00;;;;31011215;28;20153;-72
2021/12/23 01:55:37;;;;;;;0.40;0.40;;;0.80;90.70;-0.70;101439.00;;;;31013370;28;20417;-72
2021/12/23 02:10:41;;;;;;;0.30;0.30;;;0.80;90.60;-0.70;101433.00;;;;31008040;28;20045;-72
2021/12/23 02:25:43;;;;;;;0.30;0.30;;;0.80;91.10;-0.80;101390.00;;;;30987421;28;20435;-72
2021/12/23 02:40:44;;;;;;;0.50;0.50;;;0.70;90.80;-0.90;101371.00;;;;30999102;28;20041;-72
2021/12/23 02:55:46;;;;;;;0.40;0.40;;;0.60;90.80;-1.10;101367.00;;;;31033536;28;20047;-71
2021/12/23 03:10:48;;;;;;;0.30;0.30;;;0.50;91.30;-1.20;101351.00;;;;31000050;28;20457;-70
2021/12/23 03:25:49;;;;;;;0.30;0.30;;;0.40;91.30;-1.20;101342.00;;;;31008033;28;20084;-69
2021/12/23 03:40:50;;;;;;;0.30;0.30;;;0.40;90.90;-1.30;101319.00;;;;30991841;28;20074;-71
2021/12/23 03:55:52;;;;;;;0.40;0.40;;;-1.50;90.50;-1.40;101282.00;;;;30995160;28;20077;-70
2021/12/23 04:10:58;;;;;;;0.90;0.90;;;0.10;91.00;-1.50;101233.00;;;;30986320;28;20046;-70
2021/12/23 04:25:59;;;;;;;0.40;0.40;;;0.10;91.50;-1.50;101237.00;;;;30959741;28;20046;-70
2021/12/23 04:41:00;;;;;;;0.30;0.30;;;0.10;91.10;-1.50;101223.00;;;;30987389;28;20794;-70
2021/12/23 04:56:01;;;;;;;6.32;4.03;;;0.70;91.10;-1.50;101214.00;;;;30999378;28;20283;-70
2021/12/23 05:11:02;;;;;;;0.43;0.43;;;0.10;91.20;-1.40;101205.00;;;;31008958;28;20108;-71
2021/12/23 05:26:06;;;;;;;0.35;0.35;;;0.20;90.90;-1.40;101174.00;;;;31012440;28;20054;-70
2021/12/23 05:41:07;;;;;;;0.40;0.40;;;0.20;90.90;-1.30;101179.00;;;;31036128;28;20042;-70
2021/12/23 05:56:09;;;;;;;0.40;0.40;;;2.10;91.30;-1.40;101176.00;;;;31022826;28;20042;-71
2021/12/23 06:11:11;;;;;;;0.32;0.32;;;0.20;90.80;-1.40;101167.00;;;;31019589;28;20575;-71
2021/12/23 06:26:12;;;;;;;0.40;0.40;;;0.20;90.90;-1.40;101135.00;;;;31027346;28;20056;-70
2021/12/23 06:41:15;;;;;;;0.30;0.30;;;0.20;91.00;-1.40;101106.00;;;;31026426;28;20084;-70
2021/12/23 06:56:18;;;;;;;0.30;0.30;;;0.20;91.10;-1.40;101122.00;;;;31009721;28;20046;-70
2021/12/23 07:11:19;;;;;;;0.40;0.40;;;0.20;91.50;-1.40;101099.00;;;;31005008;28;20117;-71
2021/12/23 07:26:26;;;;;;;0.30;0.30;;;0.20;91.60;-1.30;101129.00;;;;31024088;28;20042;-71
2021/12/23 07:41:27;;;;;;;0.30;0.30;;;0.30;91.20;-1.20;101107.00;;;;31002481;28;20598;-71
2021/12/23 07:56:32;;;;;;;0.20;0.20;;;0.50;91.10;-1.10;101122.00;;;;30992178;28;20111;-70
2021/12/23 08:11:39;;;;;;;0.40;0.40;;;0.50;91.10;-1.00;101114.00;;;;30991615;28;20061;-71
2021/12/23 08:26:44;;;;;;;0.40;0.40;;;0.60;91.00;-0.80;101108.00;;;;30994549;28;20200;-70
2021/12/23 08:41:47;;;;;;;0.30;0.30;;;0.80;91.00;-0.70;101076.00;;;;31026294;28;20049;-70
2021/12/23 08:56:49;;;;;;;0.40;0.40;;;0.90;90.80;-0.60;101063.00;;;;31013169;28;20045;-71
2021/12/23 09:11:52;;;;;;;0.30;0.30;;;0.90;90.90;-0.50;101027.00;;;;31015084;28;20112;-71
2021/12/23 09:27:01;;;;;;;0.38;0.38;;;1.20;90.80;-0.30;101027.00;;;;31010477;28;20049;-71
2021/12/23 09:42:04;;;;;;;0.40;0.40;;;1.40;90.70;-0.10;101009.00;;;;31007818;28;20145;-70
2021/12/23 09:57:06;;;;;;;0.40;0.40;;;1.50;90.70;0.10;100999.00;;;;31015086;28;20049;-70
2021/12/23 10:42:50;;;;;;;0.30;0.30;;;2.10;90.30;0.70;100932.00;;;;31010336;28;20073;-71
2021/12/23 10:58:11;;;;;;;0.93;0.93;;;2.40;90.20;1.00;100906.00;;;;30995614;28;20545;-71
2021/12/23 11:44:24;;;;;;;0.20;0.20;;;2.90;90.10;1.60;100799.00;;;;31026255;28;20046;-73
2021/12/23 11:59:26;;;;;;;0.30;0.30;;;3.00;90.00;1.70;100780.00;;;;31027855;28;20045;-73
2021/12/23 12:14:46;;;;;;;0.20;0.20;;;3.20;90.00;1.90;100757.00;;;;30993393;28;20046;-74
2021/12/23 12:30:07;;;;;;;0.40;0.40;;;3.60;90.00;2.30;100746.00;;;;31017002;28;20572;-75
2021/12/23 12:45:22;;;;;;;0.30;0.30;;;3.60;90.00;2.70;100685.00;;;;31035865;28;20047;-75
2021/12/23 13:00:39;;;;;;;0.28;0.28;;;4.10;89.60;2.80;100678.00;;;;31009089;28;20076;-75
2021/12/23 13:15:40;;;;;;;0.25;0.25;;;4.20;89.60;3.00;100659.00;;;;31016376;28;20052;-75
2021/12/23 13:30:49;;;;;;;0.20;0.20;;;4.50;89.40;3.20;100643.00;;;;31007057;28;20577;-75
2021/12/23 13:45:50;;;;;;;0.20;0.20;;;4.60;89.60;3.40;100642.00;;;;31024236;28;20049;-76
2021/12/23 14:00:51;;;;;;;0.40;0.40;;;4.60;90.10;3.50;100638.00;;;;30991871;23;20054;-76
2021/12/23 14:15:53;;;;;;;0.30;0.30;;;4.80;90.10;3.60;100625.00;;;;30747806;28;68066;-76
2021/12/23 14:31:02;;;;;;;0.22;0.22;;;4.80;90.80;3.70;100621.00;;;;30772734;28;20590;-76
2021/12/23 14:46:03;;;;;;;0.22;0.22;;;4.90;90.30;3.70;100634.00;;;;30655746;28;20044;-76
2021/12/23 15:01:10;;;;;;;1.35;1.35;;;4.90;90.70;3.60;100630.00;;;;30658085;28;20530;-76
2021/12/23 15:16:22;;;;;;;0.20;0.20;;;4.90;90.80;3.70;100623.00;;;;30612377;28;20075;-76
2021/12/23 15:31:23;;;;;;;0.20;0.20;;;5.00;91.30;3.60;100654.00;;;;30643094;28;20055;-76
2021/12/23 15:46:23;;;;;;;0.23;0.23;;;4.90;91.50;3.60;100658.00;;;;30630451;28;20520;-76
2021/12/23 16:01:25;;;;;;;0.25;0.25;;;5.00;91.20;3.70;100645.00;;;;30635507;28;20388;-77
2021/12/23 16:16:26;;;;;;;1.40;1.40;;;5.00;91.30;3.70;100640.00;;;;30626048;28;20211;-77
2021/12/23 16:31:29;;;;;;;0.30;0.30;;;5.10;91.60;3.80;100623.00;;;;30617362;28;20671;-76
2021/12/23 16:46:30;;;;;;;0.30;0.30;;;4.90;91.80;3.80;100641.00;;;;30636697;28;20051;-70
2021/12/23 17:01:31;;;;;;;0.30;0.30;;;5.10;92.00;3.80;100615.00;;;;30627620;28;20052;-76
2021/12/23 17:16:36;;;;;;;0.40;0.40;;;5.10;92.50;3.80;100616.00;;;;30669971;28;20098;-76
2021/12/23 17:31:38;;;;;;;0.55;0.55;;;5.20;92.40;3.90;100614.00;;;;30654011;28;20043;-77
2021/12/23 17:46:38;;;;;;;0.20;0.20;;;5.20;93.40;3.90;100603.00;;;;30646671;28;20234;-76
2021/12/23 18:01:40;;;;;;;0.30;0.30;;;5.20;93.30;4.00;100571.00;;;;30628501;28;20644;-76
2021/12/23 18:16:42;;;;;;;0.30;0.30;;;5.20;93.40;4.00;100542.00;;;;30634883;28;20334;-76
2021/12/23 18:31:44;;;;;;;0.47;0.47;;;5.20;93.50;4.00;100523.00;;;;30651065;28;20059;-76
2021/12/23 18:46:45;;;;;;;0.50;0.50;;;5.20;94.10;4.00;100488.00;;;;30649023;28;20067;-75
2021/12/23 19:01:48;;;;;;;0.30;0.30;;;5.30;94.70;4.10;100489.00;;;;30640085;28;20050;-75
2021/12/23 19:16:50;;;;;;;0.20;0.20;;;5.40;94.40;4.30;100483.00;;;;30650526;28;20508;-74
2021/12/23 19:31:51;;;;;;;0.30;0.30;;;5.50;94.90;4.30;100479.00;;;;30619233;28;20405;-74
2021/12/23 19:46:51;;;;;;;0.30;0.30;;;5.60;94.90;4.30;100475.00;;;;30611075;28;20048;-73
2021/12/23 20:01:54;;;;;;;0.30;0.30;;;5.70;95.10;4.50;100469.00;;;;30602690;28;20087;-73
2021/12/23 20:16:56;;;;;;;0.30;0.30;;;5.70;96.40;4.60;100466.00;;;;30605114;28;20271;-73
2021/12/23 20:32:01;;;;;;;0.20;0.20;;;6.00;95.80;4.80;100447.00;;;;30630713;28;20317;-72
2021/12/23 20:47:03;;;;;;;0.20;0.20;;;6.20;97.00;5.00;100450.00;;;;30634248;28;20374;-72
2021/12/23 21:02:04;;;;;;;0.30;0.30;;;6.30;96.50;5.20;100443.00;;;;30657643;28;20490;-73
2021/12/23 21:17:05;;;;;;;0.30;0.30;;;6.40;96.80;5.30;100426.00;;;;30767509;28;20134;-73
2021/12/23 21:32:08;;;;;;;0.33;0.33;;;6.60;96.80;5.40;100410.00;;;;30762449;28;20730;-74
2021/12/23 21:47:09;;;;;;;0.20;0.20;;;6.70;96.90;5.60;100424.00;;;;30748524;28;20050;-75
2021/12/23 22:02:10;;;;;;;0.20;0.20;;;6.80;97.20;5.70;100404.00;;;;30757567;28;20051;-75
2021/12/23 22:17:11;;;;;;;1.27;1.27;;;7.10;97.60;5.90;100391.00;;;;30763374;28;20050;-75
2021/12/23 22:32:12;;;;;;;0.23;0.23;;;7.10;97.60;6.00;100388.00;;;;30699244;28;20170;-75
2021/12/23 22:47:13;;;;;;;0.20;0.20;;;7.10;98.30;6.20;100380.00;;;;30763534;28;20306;-76
2021/12/23 23:02:15;;;;;;;0.22;0.22;;;7.40;98.00;6.30;100387.00;;;;30761453;28;20414;-75
2021/12/23 23:17:18;;;;;;;0.30;0.30;;;7.60;98.30;6.50;100378.00;;;;30757580;28;20070;-75
2021/12/23 23:47:43;;;;;;;1.08;1.08;;;7.70;98.90;6.70;100360.00;;;;30762319;28;21188;-75
